METAR AND TAF INFORMATION
METAR FOR LBWN
ADDS - METARS form results

(0758 UTC 09 May 2021)
Data provider http://aviationweather.gov/metar/data/
 
METAR text: LBWN 090730Z 04007KT 010V100 CAVOK 15/04 Q1026 NOSIG
Conditions at: LBWN (VARNA , BG) observed 0730 UTC 09 May 2021
Temperature: 15.0°C (59°F)
Dewpoint: 4.0°C (39°F) [RH = 48%]
Pressure (altimeter): 30.30 inches Hg (1026.0 mb)
Winds: from the NE (40 degrees) at 8 MPH (7 knots; 3.6 m/s)
Visibility: 6 or more miles (10+ km)
Ceiling: ceiling and visibility are OK
Clouds: unknown
Weather: no significant weather observed at this time

METAR text: LBWN 090700Z 06006KT 010V140 CAVOK 15/04 Q1026 NOSIG
Conditions at: LBWN (VARNA , BG) observed 0700 UTC 09 May 2021
Temperature: 15.0°C (59°F)
Dewpoint: 4.0°C (39°F) [RH = 48%]
Pressure (altimeter): 30.30 inches Hg (1026.0 mb)
Winds: from the ENE (60 degrees) at 7 MPH (6 knots; 3.1 m/s)
Visibility: 6 or more miles (10+ km)
Ceiling: ceiling and visibility are OK
Clouds: unknown
Weather: no significant weather observed at this time

Forecast for: LBWN (VARNA , BG)
Text: TAF LBWN 090500Z 0906/1006 02008KT 9999 SCT045
Forecast period: 0600 to 0800 UTC 09 May 2021
Forecast type: FROM: standard forecast or significant change
Winds: from the NNE (20 degrees) at 9 MPH (8 knots; 4.1 m/s)
Visibility: 6 or more miles (10+ km)
Ceiling: at least 12,000 feet AGL
Clouds: scattered clouds at 4500 feet AGL
Weather: no significant weather forecast for this period
Text: BECMG 0908/0910 12012KT
Forecast period: 0800 to 1900 UTC 09 May 2021
Forecast type: BECOMING: Conditions expected to become as follows by 1000 UTC 09 May 2021
Winds: from the ESE (120 degrees) at 14 MPH (12 knots; 6.2 m/s)
Visibility: 6 or more miles (10+ km)
Ceiling: at least 12,000 feet AGL
Clouds: scattered clouds at 4500 feet AGL
Weather: no significant weather forecast for this period
Text: BECMG 0919/0921 VRB04KT
Forecast period: 1900 UTC 09 May 2021 to 0600 UTC 10 May 2021
Forecast type: BECOMING: Conditions expected to become as follows by 2100 UTC 09 May 2021
Winds: variable direction winds at 5 MPH (4 knots; 2.1 m/s)
Visibility: 6 or more miles (10+ km)
Ceiling: at least 12,000 feet AGL
Clouds: scattered clouds at 4500 feet AGL
Weather: no significant weather forecast for this period

 AIRPORT MAP

 RUNWAY INFORMATION
Runway 09 Runway length 8202 ft Runway width 180 ft
Runway elevation 203 ft Runway displaced threshold 0 ft Runway heading 97
Runway 27 Runway length 8202 ft Runway width 180 ft
Runway elevation 217 ft Runway displaced threshold 0 ft Runway heading 277

 AIRPORT FREQUENCIES
Type APP Name APP Frequency 121 MHZ
Type ATIS Name ATIS Frequency 118.075 MHZ
Type TWR Name TWR Frequency 119.5 MHZ

 AIRPORT NEAR NAVIGATION AIDS
Type NDB Name Devnya Frequency 350 KHZ
Type NDB Name Varna Frequency 375 KHZ
Type NDB Name Varna Frequency 335 KHZ
Type NDB Name Varna Frequency 397 KHZ
Type NDB Name Varna Frequency 526 KHZ
Type VOR-DME Name Varna Frequency 112400 KHZ